Time;durP1;ratioP1;P1;durP2;ratioP2;P2;SDS_P1;SDS_P2;PMS_P1;PMS_P2;Temp;Humidity;BMP_temperature;BMP_pressure;BME280_temperature;BME280_humidity;BME280_pressure;Samples;Min_cycle;Max_cycle;Signal;HPM_P1;HPM_P2
2021/07/09 00:01:28;;;;;;;;;;;;;;;;;;2144359;59;1309;-72
2021/07/09 00:03:54;;;;;;;;;;;;;;;;;;2141712;66;1386;-71
2021/07/09 00:06:21;;;;;;;;;;;;;;;;;;2142549;66;1247;-71
2021/07/09 00:08:46;;;;;;;;;;;;;;;;;;2142542;66;1486;-72
2021/07/09 00:11:12;;;;;;;;;;;;;;;;;;2144976;59;1295;-71
2021/07/09 00:13:37;;;;;;;;;;;;;;;;;;2140804;59;2219;-72
2021/07/09 00:16:02;;;;;;;;;;;;;;;;;;2142152;59;2604;-70
2021/07/09 00:18:27;;;;;;;;;;;;;;;;;;2143888;66;1360;-71
2021/07/09 00:20:53;;;;;;;;;;;;;;;;;;2144464;66;1217;-71
2021/07/09 00:23:18;;;;;;;;;;;;;;;;;;2142335;59;2357;-71
2021/07/09 00:25:43;;;;;;;;;;;;;;;;;;2143147;66;1596;-69
2021/07/09 00:28:09;;;;;;;;;;;;;;;;;;2143071;66;1513;-70
2021/07/09 00:30:34;;;;;;;;;;;;;;;;;;2144452;59;1207;-70
2021/07/09 00:32:59;;;;;;;;;;;;;;;;;;2141498;66;2639;-68
2021/07/09 00:35:24;;;;;;;;;;;;;;;;;;2141852;59;1333;-70
2021/07/09 00:37:49;;;;;;;;;;;;;;;;;;2143029;66;1258;-70
2021/07/09 00:40:15;;;;;;;;;;;;;;;;;;2143558;66;1117;-69
2021/07/09 00:42:42;;;;;;;;;;;;;;;;;;2144448;66;1261;-69
2021/07/09 00:45:08;;;;;;;;;;;;;;;;;;2141972;66;1214;-71
2021/07/09 00:47:33;;;;;;;;;;;;;;;;;;2143683;66;1521;-70
2021/07/09 00:49:59;;;;;;;;;;;;;;;;;;2141636;66;1374;-69
2021/07/09 00:52:24;;;;;;;;;;;;;;;;;;2142896;66;1919;-70
2021/07/09 00:54:50;;;;;;;;;;;;;;;;;;2141541;66;1705;-71
2021/07/09 00:57:15;;;;;;;;;;;;;;;;;;2143665;59;1398;-70
2021/07/09 00:59:40;;;;;;;;;;;;;;;;;;2141433;66;1215;-69
2021/07/09 01:02:06;;;;;;;;;;;;;;;;;;2142856;66;1324;-70
2021/07/09 01:04:31;;;;;;;;;;;;;;;;;;2140720;66;2205;-70
2021/07/09 01:06:56;;;;;;;;;;;;;;;;;;2141889;66;1405;-70
2021/07/09 01:09:21;;;;;;;;;;;;;;;;;;2144176;66;1589;-70
2021/07/09 01:11:50;;;;;;;;;;;;;;;;;;2141838;66;1208;-70
2021/07/09 01:14:16;;;;;;;;;;;;;;;;;;2140891;59;2738;-69
2021/07/09 01:16:42;;;;;;;;;;;;;;;;;;2142322;59;2299;-69
2021/07/09 01:19:07;;;;;;;;;;;;;;;;;;2142244;66;1183;-68
2021/07/09 01:21:33;;;;;;;;;;;;;;;;;;2143538;66;1514;-68
2021/07/09 01:24:03;;;;;;;;;;;;;;;;;;2141573;59;3339;-69
2021/07/09 01:26:28;;;;;;;;;;;;;;;;;;2143403;66;2655;-69
2021/07/09 01:28:54;;;;;;;;;;;;;;;;;;2143437;66;1170;-70
2021/07/09 01:31:19;;;;;;;;;;;;;;;;;;2144385;66;1288;-70
2021/07/09 01:33:44;;;;;;;;;;;;;;;;;;2140956;59;2431;-69
2021/07/09 01:36:09;;;;;;;;;;;;;;;;;;2142598;66;1110;-70
2021/07/09 01:38:35;;;;;;;;;;;;;;;;;;2142541;66;1207;-70
2021/07/09 01:41:00;;;;;;;;;;;;;;;;;;2142494;66;1320;-70
2021/07/09 01:43:25;;;;;;;;;;;;;;;;;;2143159;66;1210;-69
2021/07/09 01:45:50;;;;;;;;;;;;;;;;;;2143286;66;1264;-68
2021/07/09 01:48:16;;;;;;;;;;;;;;;;;;2141980;59;1469;-70
2021/07/09 01:50:41;;;;;;;;;;;;;;;;;;2142263;66;1239;-69
2021/07/09 01:53:06;;;;;;;;;;;;;;;;;;2142817;66;1917;-68
2021/07/09 01:55:31;;;;;;;;;;;;;;;;;;2143626;59;1781;-68
2021/07/09 01:57:56;;;;;;;;;;;;;;;;;;2142958;66;1227;-68
2021/07/09 02:00:23;;;;;;;;;;;;;;;;;;2142343;66;1401;-69
2021/07/09 02:02:49;;;;;;;;;;;;;;;;;;2143296;66;2628;-69
2021/07/09 02:05:15;;;;;;;;;;;;;;;;;;2143358;66;1299;-69
2021/07/09 02:07:42;;;;;;;;;;;;;;;;;;2143327;66;1123;-70
2021/07/09 02:10:08;;;;;;;;;;;;;;;;;;2141726;66;1223;-70
2021/07/09 02:12:34;;;;;;;;;;;;;;;;;;2143046;66;1983;-70
2021/07/09 02:15:00;;;;;;;;;;;;;;;;;;2144249;59;2105;-72
2021/07/09 02:17:25;;;;;;;;;;;;;;;;;;2141504;61;2312;-71
2021/07/09 02:19:50;;;;;;;;;;;;;;;;;;2142766;66;1893;-71
2021/07/09 02:22:17;;;;;;;;;;;;;;;;;;2144059;59;1295;-71
2021/07/09 02:24:43;;;;;;;;;;;;;;;;;;2141165;59;2335;-70
2021/07/09 02:27:08;;;;;;;;;;;;;;;;;;2143476;59;2561;-71
2021/07/09 02:29:34;;;;;;;;;;;;;;;;;;2142824;59;1742;-71
2021/07/09 02:31:59;;;;;;;;;;;;;;;;;;2142814;66;1052;-70
2021/07/09 02:34:26;;;;;;;;;;;;;;;;;;2142401;66;2346;-70
2021/07/09 02:36:51;;;;;;;;;;;;;;;;;;2142313;66;1738;-69
2021/07/09 02:39:16;;;;;;;;;;;;;;;;;;2143345;66;1050;-71
2021/07/09 02:41:41;;;;;;;;;;;;;;;;;;2143555;66;1244;-72
2021/07/09 02:44:06;;;;;;;;;;;;;;;;;;2144820;66;1285;-71
2021/07/09 02:46:32;;;;;;;;;;;;;;;;;;2142909;66;1127;-70
2021/07/09 02:48:57;;;;;;;;;;;;;;;;;;2143681;66;1228;-71
2021/07/09 02:51:22;;;;;;;;;;;;;;;;;;2143576;66;1198;-71
2021/07/09 02:53:47;;;;;;;;;;;;;;;;;;2144120;66;1927;-72
2021/07/09 02:56:12;;;;;;;;;;;;;;;;;;2143263;66;1321;-72
2021/07/09 02:58:37;;;;;;;;;;;;;;;;;;2142783;66;1611;-71
2021/07/09 03:01:03;;;;;;;;;;;;;;;;;;2141940;66;1230;-71
2021/07/09 03:03:28;;;;;;;;;;;;;;;;;;2143530;66;2447;-72
2021/07/09 03:05:53;;;;;;;;;;;;;;;;;;2144399;66;1144;-72
2021/07/09 03:08:18;;;;;;;;;;;;;;;;;;2142842;59;1403;-71
2021/07/09 03:10:43;;;;;;;;;;;;;;;;;;2142315;66;1102;-71
2021/07/09 03:13:08;;;;;;;;;;;;;;;;;;2144032;66;1940;-72
2021/07/09 03:15:34;;;;;;;;;;;;;;;;;;2142479;58;1375;-71
2021/07/09 03:17:59;;;;;;;;;;;;;;;;;;2141549;59;2639;-71
2021/07/09 03:20:24;;;;;;;;;;;;;;;;;;2142106;66;1774;-71
2021/07/09 03:22:49;;;;;;;;;;;;;;;;;;2141602;59;1397;-72
2021/07/09 03:25:15;;;;;;;;;;;;;;;;;;2142657;59;2331;-72
2021/07/09 03:27:40;;;;;;;;;;;;;;;;;;2140510;66;2509;-70
2021/07/09 03:30:06;;;;;;;;;;;;;;;;;;2143438;66;1349;-71
2021/07/09 03:32:31;;;;;;;;;;;;;;;;;;2142052;66;1936;-71
2021/07/09 03:34:56;;;;;;;;;;;;;;;;;;2142915;58;2568;-71
2021/07/09 03:37:21;;;;;;;;;;;;;;;;;;2142934;66;1062;-73
2021/07/09 03:39:46;;;;;;;;;;;;;;;;;;2143419;66;1290;-72
2021/07/09 03:42:11;;;;;;;;;;;;;;;;;;2143129;66;1140;-71
2021/07/09 03:44:37;;;;;;;;;;;;;;;;;;2144692;66;1229;-71
2021/07/09 03:47:02;;;;;;;;;;;;;;;;;;2143455;59;1314;-71
2021/07/09 03:49:27;;;;;;;;;;;;;;;;;;2143154;66;1167;-72
2021/07/09 03:51:52;;;;;;;;;;;;;;;;;;2143671;66;1290;-71
2021/07/09 03:54:17;;;;;;;;;;;;;;;;;;2143548;66;1940;-71
2021/07/09 03:56:43;;;;;;;;;;;;;;;;;;2142809;66;1141;-72
2021/07/09 03:59:08;;;;;;;;;;;;;;;;;;2145037;66;1084;-72
2021/07/09 04:01:33;;;;;;;;;;;;;;;;;;2140658;66;2494;-72
2021/07/09 04:03:58;;;;;;;;;;;;;;;;;;2140909;66;2934;-71
2021/07/09 04:06:23;;;;;;;;;;;;;;;;;;2141386;59;2542;-72
2021/07/09 04:08:49;;;;;;;;;;;;;;;;;;2140577;66;2593;-72
2021/07/09 04:11:14;;;;;;;;;;;;;;;;;;2143161;66;2332;-71
2021/07/09 04:13:39;;;;;;;;;;;;;;;;;;2144296;66;1979;-72
2021/07/09 04:16:04;;;;;;;;;;;;;;;;;;2143533;59;1482;-71
2021/07/09 04:18:31;;;;;;;;;;;;;;;;;;2140178;66;2361;-72
2021/07/09 04:20:56;;;;;;;;;;;;;;;;;;2143667;66;1349;-72
2021/07/09 04:23:21;;;;;;;;;;;;;;;;;;2145321;59;1380;-71
2021/07/09 04:25:46;;;;;;;;;;;;;;;;;;2142176;59;2096;-71
2021/07/09 04:28:12;;;;;;;;;;;;;;;;;;2142748;66;2572;-71
2021/07/09 04:30:37;;;;;;;;;;;;;;;;;;2143784;59;1352;-72
2021/07/09 04:33:02;;;;;;;;;;;;;;;;;;2142921;66;2154;-71
2021/07/09 04:35:27;;;;;;;;;;;;;;;;;;2142782;66;2033;-71
2021/07/09 04:37:53;;;;;;;;;;;;;;;;;;2142270;66;1075;-72
2021/07/09 04:40:18;;;;;;;;;;;;;;;;;;2142828;66;1527;-72
2021/07/09 04:42:43;;;;;;;;;;;;;;;;;;2142915;66;1322;-72
2021/07/09 04:45:09;;;;;;;;;;;;;;;;;;2144416;66;1261;-72
2021/07/09 04:47:34;;;;;;;;;;;;;;;;;;2144165;66;1152;-71
2021/07/09 04:49:59;;;;;;;;;;;;;;;;;;2143682;66;1285;-72
2021/07/09 04:52:25;;;;;;;;;;;;;;;;;;2143868;66;1925;-71
2021/07/09 04:54:50;;;;;;;;;;;;;;;;;;2144658;66;1541;-72
2021/07/09 04:57:15;;;;;;;;;;;;;;;;;;2145189;66;1187;-72
2021/07/09 04:59:40;;;;;;;;;;;;;;;;;;2143487;66;1538;-72
2021/07/09 05:02:05;;;;;;;;;;;;;;;;;;2145017;66;1355;-73
2021/07/09 05:04:31;;;;;;;;;;;;;;;;;;2142564;66;2612;-72
2021/07/09 05:06:56;;;;;;;;;;;;;;;;;;2143784;59;1417;-71
2021/07/09 05:09:21;;;;;;;;;;;;;;;;;;2144383;66;1178;-71
2021/07/09 05:11:46;;;;;;;;;;;;;;;;;;2143190;66;1226;-73
2021/07/09 05:14:12;;;;;;;;;;;;;;;;;;2144590;66;1940;-72
2021/07/09 05:16:37;;;;;;;;;;;;;;;;;;2144288;66;1347;-72
2021/07/09 05:19:03;;;;;;;;;;;;;;;;;;2142755;59;2177;-72
2021/07/09 05:21:29;;;;;;;;;;;;;;;;;;2143548;66;2597;-71
2021/07/09 05:23:55;;;;;;;;;;;;;;;;;;2141880;59;1436;-72
2021/07/09 05:26:20;;;;;;;;;;;;;;;;;;2144042;66;1407;-71
2021/07/09 05:28:45;;;;;;;;;;;;;;;;;;2141841;59;3346;-71
2021/07/09 05:31:10;;;;;;;;;;;;;;;;;;2144665;66;1317;-73
2021/07/09 05:33:36;;;;;;;;;;;;;;;;;;2142959;66;2849;-71
2021/07/09 05:36:01;;;;;;;;;;;;;;;;;;2142932;59;1236;-71
2021/07/09 05:38:26;;;;;;;;;;;;;;;;;;2144910;66;1437;-71
2021/07/09 05:40:51;;;;;;;;;;;;;;;;;;2143599;66;1184;-71
2021/07/09 05:43:16;;;;;;;;;;;;;;;;;;2144481;66;2197;-71
2021/07/09 05:45:42;;;;;;;;;;;;;;;;;;2143677;66;1945;-70
2021/07/09 05:48:07;;;;;;;;;;;;;;;;;;2143212;59;1237;-71
2021/07/09 05:50:32;;;;;;;;;;;;;;;;;;2143583;66;1505;-70
2021/07/09 05:52:57;;;;;;;;;;;;;;;;;;2143387;58;1936;-71
2021/07/09 05:55:23;;;;;;;;;;;;;;;;;;2144246;66;1208;-71
2021/07/09 05:57:48;;;;;;;;;;;;;;;;;;2145029;66;1247;-71
2021/07/09 06:00:13;;;;;;;;;;;;;;;;;;2144712;66;1135;-70
2021/07/09 06:02:38;;;;;;;;;;;;;;;;;;2144689;66;2691;-71
2021/07/09 06:05:05;;;;;;;;;;;;;;;;;;2140737;59;2754;-71
2021/07/09 06:07:30;;;;;;;;;;;;;;;;;;2141757;66;2375;-71
2021/07/09 06:09:55;;;;;;;;;;;;;;;;;;2143439;66;1897;-72
2021/07/09 06:12:21;;;;;;;;;;;;;;;;;;2144759;66;1918;-71
2021/07/09 06:14:46;;;;;;;;;;;;;;;;;;2142616;66;1352;-71
2021/07/09 06:17:11;;;;;;;;;;;;;;;;;;2144948;59;1547;-70
2021/07/09 06:19:36;;;;;;;;;;;;;;;;;;2142620;59;2310;-72
2021/07/09 06:22:02;;;;;;;;;;;;;;;;;;2142600;59;2650;-70
2021/07/09 06:24:27;;;;;;;;;;;;;;;;;;2142340;59;1892;-70
2021/07/09 06:26:52;;;;;;;;;;;;;;;;;;2143216;66;1851;-70
2021/07/09 06:29:17;;;;;;;;;;;;;;;;;;2142865;59;2292;-69
2021/07/09 06:31:42;;;;;;;;;;;;;;;;;;2144309;66;1282;-71
2021/07/09 06:34:08;;;;;;;;;;;;;;;;;;2142554;58;2759;-70
2021/07/09 06:36:33;;;;;;;;;;;;;;;;;;2142961;66;1923;-71
2021/07/09 06:38:58;;;;;;;;;;;;;;;;;;2142134;59;1895;-70
2021/07/09 06:41:23;;;;;;;;;;;;;;;;;;2142360;66;1196;-71
2021/07/09 06:43:48;;;;;;;;;;;;;;;;;;2141275;58;1828;-69
2021/07/09 06:46:14;;;;;;;;;;;;;;;;;;2141848;59;1927;-70
2021/07/09 06:48:40;;;;;;;;;;;;;;;;;;2142045;66;1316;-70
2021/07/09 06:51:05;;;;;;;;;;;;;;;;;;2142757;66;1289;-71
2021/07/09 06:53:31;;;;;;;;;;;;;;;;;;2141942;66;1925;-70
2021/07/09 06:55:56;;;;;;;;;;;;;;;;;;2140969;66;1281;-71
2021/07/09 06:58:21;;;;;;;;;;;;;;;;;;2139545;58;2207;-70
2021/07/09 07:00:46;;;;;;;;;;;;;;;;;;2142364;66;1298;-70
2021/07/09 07:03:11;;;;;;;;;;;;;;;;;;2142148;59;2157;-70
2021/07/09 07:05:36;;;;;;;;;;;;;;;;;;2142564;59;1839;-71
2021/07/09 07:08:12;;;;;;;;;;;;;;;;;;2142762;59;1404;-70
2021/07/09 07:10:37;;;;;;;;;;;;;;;;;;2142024;66;1248;-70
2021/07/09 07:13:02;;;;;;;;;;;;;;;;;;2141948;66;1925;-72
2021/07/09 07:15:27;;;;;;;;;;;;;;;;;;2142710;59;1993;-70
2021/07/09 07:17:53;;;;;;;;;;;;;;;;;;2142161;66;1048;-72
2021/07/09 07:20:18;;;;;;;;;;;;;;;;;;2141424;59;2216;-71
2021/07/09 07:22:43;;;;;;;;;;;;;;;;;;2141180;59;2226;-70
2021/07/09 07:25:09;;;;;;;;;;;;;;;;;;2143187;66;1238;-70
2021/07/09 07:27:34;;;;;;;;;;;;;;;;;;2142624;66;1194;-69
2021/07/09 07:29:59;;;;;;;;;;;;;;;;;;2140952;59;2332;-71
2021/07/09 07:32:25;;;;;;;;;;;;;;;;;;2141650;66;2357;-70
2021/07/09 07:34:50;;;;;;;;;;;;;;;;;;2141990;59;2197;-70
2021/07/09 07:37:15;;;;;;;;;;;;;;;;;;2142510;66;1266;-71
2021/07/09 07:39:41;;;;;;;;;;;;;;;;;;2142162;66;1201;-70
2021/07/09 07:42:07;;;;;;;;;;;;;;;;;;2141163;66;1488;-71
2021/07/09 07:44:32;;;;;;;;;;;;;;;;;;2140899;58;2890;-70
2021/07/09 07:46:57;;;;;;;;;;;;;;;;;;2141887;58;1910;-71
2021/07/09 07:49:23;;;;;;;;;;;;;;;;;;2142181;59;1299;-70
2021/07/09 07:51:51;;;;;;;;;;;;;;;;;;2142573;59;1227;-69
2021/07/09 07:54:17;;;;;;;;;;;;;;;;;;2141520;66;1925;-70
2021/07/09 07:56:43;;;;;;;;;;;;;;;;;;2142729;66;1494;-71
2021/07/09 07:59:08;;;;;;;;;;;;;;;;;;2144503;66;1138;-70
2021/07/09 08:01:33;;;;;;;;;;;;;;;;;;2142130;59;1322;-71
2021/07/09 08:03:58;;;;;;;;;;;;;;;;;;2142029;66;1231;-71
2021/07/09 08:06:24;;;;;;;;;;;;;;;;;;2143879;59;1972;-70
2021/07/09 08:08:49;;;;;;;;;;;;;;;;;;2142305;59;1979;-71
2021/07/09 08:11:14;;;;;;;;;;;;;;;;;;2141872;66;1310;-69
2021/07/09 08:13:39;;;;;;;;;;;;;;;;;;2142736;66;1921;-71
2021/07/09 08:16:06;;;;;;;;;;;;;;;;;;2142515;59;1714;-71
2021/07/09 08:18:31;;;;;;;;;;;;;;;;;;2142243;59;2182;-69
2021/07/09 08:20:56;;;;;;;;;;;;;;;;;;2142844;66;1445;-71
2021/07/09 08:23:21;;;;;;;;;;;;;;;;;;2142505;59;2213;-71
2021/07/09 08:25:48;;;;;;;;;;;;;;;;;;2143099;66;1471;-69
2021/07/09 08:28:14;;;;;;;;;;;;;;;;;;2142722;66;1519;-70
2021/07/09 08:30:41;;;;;;;;;;;;;;;;;;2140998;59;3079;-68
2021/07/09 08:33:06;;;;;;;;;;;;;;;;;;2141166;66;3126;-69
2021/07/09 08:35:31;;;;;;;;;;;;;;;;;;2142815;59;1530;-70
2021/07/09 08:37:56;;;;;;;;;;;;;;;;;;2141181;66;1365;-73
2021/07/09 08:40:21;;;;;;;;;;;;;;;;;;2144837;66;1440;-69
2021/07/09 08:42:47;;;;;;;;;;;;;;;;;;2143267;66;1882;-69
2021/07/09 08:45:12;;;;;;;;;;;;;;;;;;2143808;66;1424;-69
2021/07/09 08:47:37;;;;;;;;;;;;;;;;;;2143451;58;2638;-68
2021/07/09 08:50:04;;;;;;;;;;;;;;;;;;2142641;66;1624;-70
2021/07/09 08:52:29;;;;;;;;;;;;;;;;;;2143090;66;1987;-68
2021/07/09 08:54:54;;;;;;;;;;;;;;;;;;2145130;66;1528;-68
2021/07/09 08:57:19;;;;;;;;;;;;;;;;;;2143673;66;1702;-69
2021/07/09 08:59:45;;;;;;;;;;;;;;;;;;2142802;66;1514;-68
2021/07/09 09:02:10;;;;;;;;;;;;;;;;;;2144051;59;2157;-68
2021/07/09 09:04:37;;;;;;;;;;;;;;;;;;2142477;59;1651;-68
2021/07/09 09:07:03;;;;;;;;;;;;;;;;;;2143202;59;1553;-67
2021/07/09 09:09:29;;;;;;;;;;;;;;;;;;2141168;59;1500;-68
2021/07/09 09:12:14;;;;;;;;;;;;;;;;;;2140538;66;1566;-69
2021/07/09 09:14:46;;;;;;;;;;;;;;;;;;2141359;66;1930;-68
2021/07/09 09:17:28;;;;;;;;;;;;;;;;;;2142879;59;1511;-69
2021/07/09 09:20:13;;;;;;;;;;;;;;;;;;2142857;66;1481;-67
2021/07/09 09:22:48;;;;;;;;;;;;;;;;;;2141725;59;1687;-69
2021/07/09 09:25:13;;;;;;;;;;;;;;;;;;2144849;66;1647;-68
2021/07/09 09:27:38;;;;;;;;;;;;;;;;;;2142984;66;1416;-69
2021/07/09 09:30:07;;;;;;;;;;;;;;;;;;2143796;66;1651;-70
2021/07/09 09:32:32;;;;;;;;;;;;;;;;;;2141595;60;3272;-68
2021/07/09 09:34:58;;;;;;;;;;;;;;;;;;2144726;58;1624;-69
2021/07/09 09:37:24;;;;;;;;;;;;;;;;;;2145416;66;1678;-71
2021/07/09 09:39:50;;;;;;;;;;;;;;;;;;2143570;66;1751;-70
2021/07/09 09:42:21;;;;;;;;;;;;;;;;;;2142869;66;2264;-68
2021/07/09 09:44:47;;;;;;;;;;;;;;;;;;2142034;59;2364;-68
2021/07/09 09:47:17;;;;;;;;;;;;;;;;;;2143975;59;1540;-70
2021/07/09 09:49:43;;;;;;;;;;;;;;;;;;2143635;66;1574;-70
2021/07/09 09:52:08;;;;;;;;;;;;;;;;;;2142484;66;1483;-71
2021/07/09 09:54:34;;;;;;;;;;;;;;;;;;2142481;58;2179;-71
2021/07/09 09:57:00;;;;;;;;;;;;;;;;;;2144829;59;5850;-70
2021/07/09 09:59:25;;;;;;;;;;;;;;;;;;2142940;66;1361;-71
2021/07/09 10:01:55;;;;;;;;;;;;;;;;;;2143360;66;1493;-71
2021/07/09 10:04:21;;;;;;;;;;;;;;;;;;2142400;66;1339;-71
2021/07/09 10:06:47;;;;;;;;;;;;;;;;;;2143887;66;1397;-69
2021/07/09 10:09:13;;;;;;;;;;;;;;;;;;2140958;59;1987;-68
2021/07/09 10:11:39;;;;;;;;;;;;;;;;;;2143043;59;1944;-71
2021/07/09 10:14:08;;;;;;;;;;;;;;;;;;2141542;59;1963;-72
2021/07/09 10:16:34;;;;;;;;;;;;;;;;;;2142196;59;1861;-71
2021/07/09 10:19:00;;;;;;;;;;;;;;;;;;2143845;59;1961;-70
2021/07/09 10:21:25;;;;;;;;;;;;;;;;;;2142704;66;1287;-70
2021/07/09 10:23:50;;;;;;;;;;;;;;;;;;2141518;59;1888;-70
2021/07/09 10:26:18;;;;;;;;;;;;;;;;;;2142613;66;1913;-70
2021/07/09 10:29:04;;;;;;;;;;;;;;;;;;2143381;59;1960;-71
2021/07/09 10:31:36;;;;;;;;;;;;;;;;;;2145039;66;1411;-71
2021/07/09 10:34:20;;;;;;;;;;;;;;;;;;2144205;59;1921;-69
2021/07/09 10:36:50;;;;;;;;;;;;;;;;;;2142970;59;1311;-72
2021/07/09 10:39:29;;;;;;;;;;;;;;;;;;2142154;59;2004;-71
2021/07/09 10:41:54;;;;;;;;;;;;;;;;;;2142696;66;1780;-70
2021/07/09 10:44:19;;;;;;;;;;;;;;;;;;2142868;66;2194;-69
2021/07/09 10:46:45;;;;;;;;;;;;;;;;;;2143412;59;2522;-72
2021/07/09 10:49:10;;;;;;;;;;;;;;;;;;2143292;66;1329;-68
2021/07/09 10:51:52;;;;;;;;;;;;;;;;;;2143763;66;1768;-70
2021/07/09 10:54:24;;;;;;;;;;;;;;;;;;2143397;66;1923;-71
2021/07/09 10:57:10;;;;;;;;;;;;;;;;;;2141913;66;1740;-68
2021/07/09 10:59:55;;;;;;;;;;;;;;;;;;2143587;66;1588;-69
2021/07/09 11:02:39;;;;;;;;;;;;;;;;;;2144666;66;1765;-71
2021/07/09 11:05:04;;;;;;;;;;;;;;;;;;2141521;66;1552;-71
2021/07/09 11:07:29;;;;;;;;;;;;;;;;;;2142331;59;1546;-70
2021/07/09 11:09:54;;;;;;;;;;;;;;;;;;2141488;66;2177;-70
2021/07/09 11:12:28;;;;;;;;;;;;;;;;;;2143736;66;2292;-71
2021/07/09 11:14:55;;;;;;;;;;;;;;;;;;2140545;59;1901;-68
2021/07/09 11:17:23;;;;;;;;;;;;;;;;;;2141830;66;1831;-69
2021/07/09 11:19:49;;;;;;;;;;;;;;;;;;2143435;66;1695;-69
2021/07/09 11:22:15;;;;;;;;;;;;;;;;;;2144284;59;1543;-70
2021/07/09 11:24:40;;;;;;;;;;;;;;;;;;2143269;59;1933;-71
2021/07/09 11:27:06;;;;;;;;;;;;;;;;;;2143504;59;1597;-69
2021/07/09 11:29:31;;;;;;;;;;;;;;;;;;2143361;66;1483;-69
2021/07/09 11:31:58;;;;;;;;;;;;;;;;;;2143572;66;1587;-69
2021/07/09 11:34:24;;;;;;;;;;;;;;;;;;2144239;66;1931;-70
2021/07/09 11:36:54;;;;;;;;;;;;;;;;;;2143004;66;1560;-69
2021/07/09 11:39:19;;;;;;;;;;;;;;;;;;2145076;66;1710;-69
2021/07/09 11:41:50;;;;;;;;;;;;;;;;;;2142107;66;1389;-69
2021/07/09 11:44:16;;;;;;;;;;;;;;;;;;2142461;66;2144;-71
2021/07/09 11:46:45;;;;;;;;;;;;;;;;;;2143098;66;2243;-70
2021/07/09 11:49:10;;;;;;;;;;;;;;;;;;2143462;59;1655;-69
2021/07/09 11:51:35;;;;;;;;;;;;;;;;;;2144487;66;1888;-71
2021/07/09 11:54:07;;;;;;;;;;;;;;;;;;2143411;66;1982;-69
2021/07/09 11:56:41;;;;;;;;;;;;;;;;;;2145553;66;1824;-68
2021/07/09 11:59:14;;;;;;;;;;;;;;;;;;2145336;66;1611;-69
2021/07/09 12:01:39;;;;;;;;;;;;;;;;;;2145444;66;1638;-70
2021/07/09 12:04:04;;;;;;;;;;;;;;;;;;2144937;59;1946;-69
2021/07/09 12:06:29;;;;;;;;;;;;;;;;;;2144187;59;2162;-71
2021/07/09 12:08:58;;;;;;;;;;;;;;;;;;2142288;58;2211;-70
2021/07/09 12:11:23;;;;;;;;;;;;;;;;;;2144154;59;1495;-71
2021/07/09 12:14:02;;;;;;;;;;;;;;;;;;2143385;59;2731;-68
2021/07/09 12:16:27;;;;;;;;;;;;;;;;;;2143049;66;1973;-70
2021/07/09 12:18:53;;;;;;;;;;;;;;;;;;2144161;66;1245;-71
2021/07/09 12:21:18;;;;;;;;;;;;;;;;;;2143167;59;1334;-69
2021/07/09 12:23:43;;;;;;;;;;;;;;;;;;2144700;59;1408;-69
2021/07/09 12:26:09;;;;;;;;;;;;;;;;;;2142967;66;2127;-70
2021/07/09 12:28:35;;;;;;;;;;;;;;;;;;2141727;59;2018;-70
2021/07/09 12:31:02;;;;;;;;;;;;;;;;;;2144007;66;1883;-71
2021/07/09 12:33:30;;;;;;;;;;;;;;;;;;2145843;66;1954;-69
2021/07/09 12:36:07;;;;;;;;;;;;;;;;;;2143164;59;1343;-70
2021/07/09 12:38:36;;;;;;;;;;;;;;;;;;2141886;59;1648;-67
2021/07/09 12:41:02;;;;;;;;;;;;;;;;;;2140861;59;1764;-70
2021/07/09 12:43:28;;;;;;;;;;;;;;;;;;2142033;66;1702;-69
2021/07/09 12:46:00;;;;;;;;;;;;;;;;;;2140351;59;1681;-71
2021/07/09 12:48:33;;;;;;;;;;;;;;;;;;2143591;66;1302;-71
2021/07/09 12:50:59;;;;;;;;;;;;;;;;;;2141281;59;1629;-70
2021/07/09 12:53:24;;;;;;;;;;;;;;;;;;2141919;66;1913;-71
2021/07/09 12:55:50;;;;;;;;;;;;;;;;;;2142293;66;1136;-71
2021/07/09 12:58:17;;;;;;;;;;;;;;;;;;2141069;66;1945;-71
2021/07/09 13:00:43;;;;;;;;;;;;;;;;;;2141858;59;1793;-70
2021/07/09 13:03:09;;;;;;;;;;;;;;;;;;2142627;59;2311;-70
2021/07/09 13:05:34;;;;;;;;;;;;;;;;;;2143718;66;1374;-68
2021/07/09 13:08:10;;;;;;;;;;;;;;;;;;2142668;66;1433;-70
2021/07/09 13:10:35;;;;;;;;;;;;;;;;;;2142534;66;1511;-68
2021/07/09 13:13:19;;;;;;;;;;;;;;;;;;2143648;59;1935;-71
2021/07/09 13:16:00;;;;;;;;;;;;;;;;;;2140139;59;2129;-70
2021/07/09 13:18:27;;;;;;;;;;;;;;;;;;2142507;66;1205;-70
2021/07/09 13:21:03;;;;;;;;;;;;;;;;;;2144033;66;1667;-70
2021/07/09 13:23:29;;;;;;;;;;;;;;;;;;2142613;59;1448;-70
2021/07/09 13:26:05;;;;;;;;;;;;;;;;;;2142520;66;1150;-70
2021/07/09 13:28:45;;;;;;;;;;;;;;;;;;2144085;66;1124;-68
2021/07/09 13:31:11;;;;;;;;;;;;;;;;;;2141980;66;1158;-70
2021/07/09 13:33:37;;;;;;;;;;;;;;;;;;2142449;66;2023;-70
2021/07/09 13:36:03;;;;;;;;;;;;;;;;;;2140499;59;1241;-71
2021/07/09 13:38:28;;;;;;;;;;;;;;;;;;2141419;66;1220;-69
2021/07/09 13:40:53;;;;;;;;;;;;;;;;;;2141294;66;1450;-67
2021/07/09 13:43:18;;;;;;;;;;;;;;;;;;2142079;66;1209;-70
2021/07/09 13:45:43;;;;;;;;;;;;;;;;;;2147189;53;1953;-69
2021/07/09 13:48:09;;;;;;;;;;;;;;;;;;2139412;59;1375;-66
2021/07/09 13:50:36;;;;;;;;;;;;;;;;;;2137790;59;2254;-66
2021/07/09 13:53:01;;;;;;;;;;;;;;;;;;2140103;59;1935;-66
2021/07/09 13:55:26;;;;;;;;;;;;;;;;;;2140209;67;1301;-67
2021/07/09 13:57:51;;;;;;;;;;;;;;;;;;2140411;67;1176;-67
2021/07/09 14:00:17;;;;;;;;;;;;;;;;;;2140060;67;1417;-68
2021/07/09 14:02:42;;;;;;;;;;;;;;;;;;2140783;59;1422;-64
2021/07/09 14:05:08;;;;;;;;;;;;;;;;;;2140635;67;1206;-69
2021/07/09 14:07:33;;;;;;;;;;;;;;;;;;2140831;59;1580;-68
2021/07/09 14:09:58;;;;;;;;;;;;;;;;;;2140551;67;1136;-66
2021/07/09 14:12:23;;;;;;;;;;;;;;;;;;2140673;59;1436;-66
2021/07/09 14:14:48;;;;;;;;;;;;;;;;;;2140728;66;1927;-65
2021/07/09 14:17:14;;;;;;;;;;;;;;;;;;2140387;59;1816;-66
2021/07/09 14:19:39;;;;;;;;;;;;;;;;;;2140672;59;1149;-65
2021/07/09 14:22:04;;;;;;;;;;;;;;;;;;2140768;67;1203;-67
2021/07/09 14:24:30;;;;;;;;;;;;;;;;;;2140537;59;1685;-69
2021/07/09 14:26:55;;;;;;;;;;;;;;;;;;2140762;67;1228;-68
2021/07/09 14:29:20;;;;;;;;;;;;;;;;;;2140193;59;2003;-66
2021/07/09 14:31:46;;;;;;;;;;;;;;;;;;2140686;59;1804;-66
2021/07/09 14:34:11;;;;;;;;;;;;;;;;;;2139685;67;2403;-66
2021/07/09 14:36:36;;;;;;;;;;;;;;;;;;2140489;59;1932;-68
2021/07/09 14:39:02;;;;;;;;;;;;;;;;;;2140917;67;1144;-68
2021/07/09 14:41:28;;;;;;;;;;;;;;;;;;2141435;67;1268;-67
2021/07/09 14:43:53;;;;;;;;;;;;;;;;;;2140335;59;2076;-68
2021/07/09 14:46:18;;;;;;;;;;;;;;;;;;2140864;67;1402;-69
2021/07/09 14:48:45;;;;;;;;;;;;;;;;;;2140700;66;1988;-67
2021/07/09 14:51:11;;;;;;;;;;;;;;;;;;2140680;67;1173;-68
2021/07/09 14:53:36;;;;;;;;;;;;;;;;;;2140500;59;1932;-67
2021/07/09 14:56:01;;;;;;;;;;;;;;;;;;2139837;66;1283;-67
2021/07/09 14:58:26;;;;;;;;;;;;;;;;;;2140282;59;1766;-67
2021/07/09 15:00:53;;;;;;;;;;;;;;;;;;2140553;59;1746;-67
2021/07/09 15:03:19;;;;;;;;;;;;;;;;;;2140646;66;1173;-70
2021/07/09 15:05:44;;;;;;;;;;;;;;;;;;2141004;66;1297;-68
2021/07/09 15:08:09;;;;;;;;;;;;;;;;;;2140920;59;1541;-71
2021/07/09 15:10:34;;;;;;;;;;;;;;;;;;2140754;67;1166;-68
2021/07/09 15:13:00;;;;;;;;;;;;;;;;;;2140088;59;1941;-67
2021/07/09 15:15:25;;;;;;;;;;;;;;;;;;2140803;59;1281;-66
2021/07/09 15:17:50;;;;;;;;;;;;;;;;;;2140263;59;1847;-67
2021/07/09 15:20:15;;;;;;;;;;;;;;;;;;2138460;59;1264;-68
2021/07/09 15:22:41;;;;;;;;;;;;;;;;;;2139754;59;1764;-67
2021/07/09 15:25:07;;;;;;;;;;;;;;;;;;2140043;67;1226;-68
2021/07/09 15:27:32;;;;;;;;;;;;;;;;;;2140404;67;1169;-69
2021/07/09 15:29:58;;;;;;;;;;;;;;;;;;2140712;67;1127;-71
2021/07/09 15:32:23;;;;;;;;;;;;;;;;;;2140847;66;1281;-67
2021/07/09 15:34:48;;;;;;;;;;;;;;;;;;2138437;59;1920;-69
2021/07/09 15:37:14;;;;;;;;;;;;;;;;;;2139317;67;1396;-67
2021/07/09 15:39:39;;;;;;;;;;;;;;;;;;2140404;67;1418;-67
2021/07/09 15:42:04;;;;;;;;;;;;;;;;;;2140893;67;1258;-70
2021/07/09 15:44:29;;;;;;;;;;;;;;;;;;2140947;59;1131;-67
2021/07/09 15:46:55;;;;;;;;;;;;;;;;;;2139350;67;2061;-68
2021/07/09 15:49:20;;;;;;;;;;;;;;;;;;2140789;67;1205;-67
2021/07/09 15:51:45;;;;;;;;;;;;;;;;;;2141034;66;1572;-68
2021/07/09 15:54:10;;;;;;;;;;;;;;;;;;2139881;67;1981;-67
2021/07/09 15:56:36;;;;;;;;;;;;;;;;;;2141480;66;1708;-68
2021/07/09 15:59:01;;;;;;;;;;;;;;;;;;2139638;59;1986;-69
2021/07/09 16:01:26;;;;;;;;;;;;;;;;;;2141779;66;1429;-68
2021/07/09 16:03:52;;;;;;;;;;;;;;;;;;2139860;59;1890;-68
2021/07/09 16:06:17;;;;;;;;;;;;;;;;;;2140104;67;1259;-68
2021/07/09 16:08:43;;;;;;;;;;;;;;;;;;2139953;59;1354;-67
2021/07/09 16:11:08;;;;;;;;;;;;;;;;;;2141128;66;1148;-69
2021/07/09 16:13:33;;;;;;;;;;;;;;;;;;2140848;59;1918;-67
2021/07/09 16:15:58;;;;;;;;;;;;;;;;;;2140748;59;1273;-69
2021/07/09 16:18:24;;;;;;;;;;;;;;;;;;2140133;59;1975;-68
2021/07/09 16:20:49;;;;;;;;;;;;;;;;;;2141331;66;1393;-68
2021/07/09 16:23:14;;;;;;;;;;;;;;;;;;2139593;59;2040;-67
2021/07/09 16:25:39;;;;;;;;;;;;;;;;;;2140320;67;1329;-67
2021/07/09 16:28:04;;;;;;;;;;;;;;;;;;2139840;59;2029;-68
2021/07/09 16:30:30;;;;;;;;;;;;;;;;;;2140078;67;1238;-68
2021/07/09 16:32:55;;;;;;;;;;;;;;;;;;2139135;59;2003;-67
2021/07/09 16:35:22;;;;;;;;;;;;;;;;;;2140329;67;1492;-67
2021/07/09 16:37:48;;;;;;;;;;;;;;;;;;2140430;67;1462;-67
2021/07/09 16:40:13;;;;;;;;;;;;;;;;;;2140680;67;1173;-67
2021/07/09 16:42:39;;;;;;;;;;;;;;;;;;2139956;67;1085;-68
2021/07/09 16:45:05;;;;;;;;;;;;;;;;;;2140574;59;1217;-68
2021/07/09 16:47:30;;;;;;;;;;;;;;;;;;2140387;67;1341;-67
2021/07/09 16:49:55;;;;;;;;;;;;;;;;;;2141200;66;1180;-69
2021/07/09 16:52:23;;;;;;;;;;;;;;;;;;2140920;66;1399;-69
2021/07/09 16:54:48;;;;;;;;;;;;;;;;;;2141322;66;1915;-68
2021/07/09 16:57:13;;;;;;;;;;;;;;;;;;2140399;67;1183;-67